createdAt,value
2023-04-29T00:02:44.079Z,282.17
2023-04-29T00:07:46.406Z,317.37
2023-04-29T00:12:49.778Z,326.20
2023-04-29T00:17:52.193Z,335.97
2023-04-29T00:22:54.463Z,333.53
2023-04-29T00:27:56.664Z,337.63
2023-04-29T00:32:58.892Z,344.67
2023-04-29T00:38:01.126Z,305.77
2023-04-29T00:43:03.413Z,294.90
2023-04-29T00:48:06.137Z,277.93
2023-04-29T00:53:10.456Z,273.90
2023-04-29T00:58:12.886Z,278.77
2023-04-29T01:03:15.788Z,308.37
2023-04-29T01:08:48.647Z,345.17
2023-04-29T01:13:58.439Z,342.17
2023-04-29T01:19:13.067Z,313.77
2023-04-29T01:24:17.046Z,316.90
2023-04-29T01:29:59.151Z,345.57
2023-04-29T01:35:22.607Z,312.43
2023-04-29T01:40:38.071Z,347.27
2023-04-29T01:45:45.201Z,313.70
2023-04-29T01:50:49.324Z,351.47
2023-04-29T01:55:52.523Z,397.27
2023-04-29T02:00:57.633Z,344.10
2023-04-29T02:06:02.664Z,300.27
2023-04-29T02:11:04.942Z,285.60
2023-04-29T02:16:15.620Z,278.03
2023-04-29T02:21:27.460Z,353.13
2023-04-29T02:26:29.679Z,347.77
2023-04-29T02:31:32.136Z,297.60
2023-04-29T02:36:34.385Z,275.17
2023-04-29T02:41:36.526Z,270.83
2023-04-29T02:46:41.086Z,270.57
2023-04-29T02:51:43.655Z,276.00
2023-04-29T02:56:45.907Z,303.53
2023-04-29T03:01:48.275Z,311.10
2023-04-29T03:06:50.950Z,370.57
2023-04-29T03:11:53.471Z,348.70
2023-04-29T03:16:56.697Z,354.20
2023-04-29T03:21:59.042Z,350.20
2023-04-29T03:27:01.398Z,320.63
2023-04-29T03:32:03.909Z,290.17
2023-04-29T03:37:06.820Z,289.90
2023-04-29T03:42:12.626Z,285.43
2023-04-29T03:47:14.858Z,311.33
2023-04-29T03:52:17.439Z,338.40
2023-04-29T03:57:22.337Z,353.27
2023-04-29T04:02:25.517Z,350.73
2023-04-29T04:07:28.038Z,349.93
2023-04-29T04:12:50.078Z,298.83
2023-04-29T04:17:52.681Z,324.50
2023-04-29T04:22:55.285Z,319.80
2023-04-29T04:28:05.086Z,259.57
2023-04-29T04:33:26.331Z,263.33
2023-04-29T04:38:28.646Z,228.77
2023-04-29T04:43:31.217Z,202.70
2023-04-29T04:48:33.578Z,230.90
2023-04-29T04:53:35.857Z,159.63
2023-04-29T04:58:43.460Z,132.10
2023-04-29T05:03:46.042Z,319.17
2023-04-29T05:08:48.677Z,274.90
2023-04-29T05:13:51.644Z,215.67
2023-04-29T05:18:54.593Z,265.33
2023-04-29T05:23:59.938Z,335.33
2023-04-29T05:29:02.335Z,320.67
2023-04-29T05:34:10.027Z,293.53
2023-04-29T05:39:12.434Z,292.70
2023-04-29T05:44:14.933Z,314.73
2023-04-29T05:49:17.286Z,350.27
2023-04-29T05:54:19.608Z,363.53
2023-04-29T05:59:22.413Z,366.53
2023-04-29T06:04:28.805Z,362.67
2023-04-29T06:09:58.020Z,355.30
2023-04-29T06:15:01.570Z,322.77
2023-04-29T06:20:04.666Z,295.23
2023-04-29T06:25:07.420Z,294.30
2023-04-29T06:30:21.391Z,380.77
2023-04-29T06:35:23.493Z,361.97
2023-04-29T06:40:39.762Z,301.90
2023-04-29T06:46:05.693Z,287.93
2023-04-29T06:51:16.285Z,334.13
2023-04-29T06:56:18.751Z,347.77
2023-04-29T07:01:23.352Z,361.70
2023-04-29T07:06:27.120Z,362.00
2023-04-29T07:11:29.658Z,360.43
2023-04-29T07:16:31.877Z,333.40
2023-04-29T07:21:34.038Z,288.77
2023-04-29T07:26:36.412Z,294.00
2023-04-29T07:31:38.733Z,296.73
2023-04-29T07:36:41.280Z,323.20
2023-04-29T07:41:43.878Z,290.03
2023-04-29T07:46:46.988Z,317.53
2023-04-29T07:51:49.234Z,330.00
2023-04-29T07:56:51.481Z,341.80
2023-04-29T08:01:55.916Z,342.03
2023-04-29T08:06:58.493Z,346.17
2023-04-29T08:12:01.874Z,336.33
2023-04-29T08:17:05.219Z,284.70
2023-04-29T08:22:07.549Z,290.80
2023-04-29T08:27:09.647Z,287.77
2023-04-29T08:32:12.246Z,286.60
2023-04-29T08:37:17.005Z,300.97
2023-04-29T08:42:35.213Z,350.63
2023-04-29T08:47:38.053Z,281.23
2023-04-29T08:52:40.189Z,290.83
2023-04-29T08:57:45.494Z,285.83
2023-04-29T09:02:53.831Z,350.83
2023-04-29T09:07:59.873Z,363.60
2023-04-29T09:13:02.030Z,319.67
2023-04-29T09:18:04.505Z,296.90
2023-04-29T09:23:06.711Z,311.93
2023-04-29T09:28:18.116Z,310.70
2023-04-29T09:33:20.353Z,406.23
2023-04-29T09:38:22.557Z,391.70
2023-04-29T09:43:24.723Z,380.40
2023-04-29T09:48:33.919Z,386.90
2023-04-29T09:53:38.368Z,331.00
2023-04-29T09:58:40.671Z,321.67
2023-04-29T10:03:44.007Z,302.50
2023-04-29T10:08:48.968Z,313.53
2023-04-29T10:13:52.859Z,335.50
2023-04-29T10:18:56.965Z,303.97
2023-04-29T10:24:02.965Z,350.30
2023-04-29T10:29:08.601Z,303.70
2023-04-29T10:34:14.181Z,314.93
2023-04-29T10:39:44.139Z,367.40
2023-04-29T10:45:28.977Z,372.27
2023-04-29T10:50:35.717Z,383.30
2023-04-29T10:55:39.123Z,295.73
2023-04-29T11:00:41.580Z,315.13
2023-04-29T11:05:46.100Z,174.53
2023-04-29T11:10:48.654Z,246.07
2023-04-29T11:16:04.311Z,371.53
2023-04-29T11:21:06.599Z,331.43
2023-04-29T11:26:09.393Z,354.13
2023-04-29T11:31:12.041Z,326.63
2023-04-29T11:36:14.643Z,330.87
2023-04-29T11:41:20.510Z,379.83
2023-04-29T11:46:22.705Z,394.67
2023-04-29T11:51:24.938Z,386.83
2023-04-29T11:56:27.191Z,386.97
2023-04-29T12:01:29.547Z,358.63
2023-04-29T12:06:31.887Z,219.03
2023-04-29T12:11:34.428Z,252.60
2023-04-29T12:16:37.381Z,304.57
2023-04-29T12:21:50.351Z,308.13
2023-04-29T12:26:54.325Z,402.67
2023-04-29T12:31:56.981Z,383.20
2023-04-29T12:37:03.048Z,390.53
2023-04-29T12:42:05.548Z,301.07
2023-04-29T12:47:12.009Z,322.77
2023-04-29T12:52:14.542Z,311.50
2023-04-29T12:57:16.933Z,357.63
2023-04-29T13:02:19.413Z,366.57
2023-04-29T13:07:21.904Z,385.10
2023-04-29T13:12:24.017Z,377.80
2023-04-29T13:17:26.492Z,348.90
2023-04-29T13:22:29.488Z,380.63
2023-04-29T13:27:32.284Z,367.33
2023-04-29T13:32:43.955Z,311.20
2023-04-29T13:37:48.834Z,341.63
2023-04-29T13:42:59.619Z,410.40
2023-04-29T13:48:20.047Z,321.37
2023-04-29T13:53:51.028Z,372.30
2023-04-29T13:59:23.620Z,395.40
2023-04-29T14:04:13.396Z,298.60
2023-04-29T14:09:16.159Z,341.87
2023-04-29T14:14:18.432Z,373.20
2023-04-29T14:19:20.893Z,369.13
2023-04-29T14:24:23.058Z,388.40
2023-04-29T14:29:25.333Z,362.07
2023-04-29T14:34:27.473Z,317.43
2023-04-29T14:39:29.606Z,239.57
2023-04-29T14:44:31.707Z,343.57
2023-04-29T14:49:34.019Z,301.73
2023-04-29T14:54:36.390Z,254.23
2023-04-29T14:59:38.459Z,244.80
2023-04-29T15:04:45.750Z,281.03
2023-04-29T15:09:48.067Z,365.17
2023-04-29T15:14:51.053Z,395.70
2023-04-29T15:19:53.376Z,387.93
2023-04-29T15:24:55.613Z,383.40
2023-04-29T15:29:58.102Z,385.43
2023-04-29T15:35:02.023Z,381.23
2023-04-29T15:40:05.284Z,319.27
2023-04-29T15:45:08.986Z,300.97
2023-04-29T15:50:11.412Z,299.47
2023-04-29T15:55:13.678Z,294.07
2023-04-29T16:00:16.390Z,309.83
2023-04-29T16:05:18.442Z,339.57
2023-04-29T16:10:20.677Z,338.87
2023-04-29T16:15:22.957Z,341.73
2023-04-29T16:20:25.911Z,343.53
2023-04-29T16:25:28.371Z,351.33
2023-04-29T16:30:30.488Z,337.20
2023-04-29T16:35:32.811Z,311.83
2023-04-29T16:40:35.217Z,292.40
2023-04-29T16:45:37.345Z,271.23
2023-04-29T16:50:39.568Z,268.87
2023-04-29T16:55:46.007Z,269.10
2023-04-29T17:00:48.240Z,310.53
2023-04-29T17:05:50.446Z,307.87
2023-04-29T17:10:52.574Z,314.93
2023-04-29T17:15:54.753Z,308.13
2023-04-29T17:20:56.966Z,311.70
2023-04-29T17:25:59.126Z,312.97
2023-04-29T17:31:02.572Z,318.20
2023-04-29T17:36:05.955Z,278.50
2023-04-29T17:41:08.195Z,287.77
2023-04-29T17:46:10.492Z,274.00
2023-04-29T17:51:12.782Z,270.03
2023-04-29T17:56:14.925Z,270.43
2023-04-29T18:01:17.149Z,325.20
2023-04-29T18:06:19.396Z,312.77
2023-04-29T18:11:21.598Z,312.57
2023-04-29T18:16:23.932Z,309.63
2023-04-29T18:21:27.741Z,311.27
2023-04-29T18:26:29.937Z,307.33
2023-04-29T18:31:32.222Z,308.73
2023-04-29T18:36:34.522Z,268.53
2023-04-29T18:41:37.171Z,258.43
2023-04-29T18:46:39.587Z,255.30
2023-04-29T18:51:46.838Z,257.80
2023-04-29T18:56:50.273Z,291.93
2023-04-29T19:01:53.256Z,305.40
2023-04-29T19:06:55.578Z,309.20
2023-04-29T19:12:05.447Z,303.97
2023-04-29T19:17:07.736Z,257.37
2023-04-29T19:22:10.081Z,255.20
2023-04-29T19:27:12.656Z,252.87
2023-04-29T19:32:15.287Z,252.30
2023-04-29T19:37:17.750Z,281.17
2023-04-29T19:42:19.868Z,288.10
2023-04-29T19:47:24.173Z,299.93
2023-04-29T19:52:27.020Z,296.70
2023-04-29T19:57:29.116Z,300.13
2023-04-29T20:02:33.079Z,304.73
2023-04-29T20:07:35.529Z,262.83
2023-04-29T20:12:37.727Z,248.70
2023-04-29T20:17:40.182Z,251.60
2023-04-29T20:22:42.567Z,254.47
2023-04-29T20:27:44.784Z,254.70
2023-04-29T20:32:47.328Z,204.73
2023-04-29T20:37:49.748Z,334.70
2023-04-29T20:42:51.951Z,340.03
2023-04-29T20:47:54.693Z,330.00
2023-04-29T20:52:57.011Z,283.33
2023-04-29T20:57:59.137Z,351.07
2023-04-29T21:03:01.712Z,360.00
2023-04-29T21:08:03.996Z,318.00
2023-04-29T21:13:06.182Z,304.27
2023-04-29T21:18:08.391Z,299.53
2023-04-29T21:23:10.601Z,294.67
2023-04-29T21:28:14.317Z,288.80
2023-04-29T21:33:17.725Z,315.17
2023-04-29T21:38:19.903Z,358.23
2023-04-29T21:43:22.070Z,358.17
2023-04-29T21:48:25.341Z,350.43
2023-04-29T21:53:27.525Z,348.33
2023-04-29T21:58:29.678Z,349.83
2023-04-29T22:03:32.035Z,339.20
2023-04-29T22:08:34.236Z,299.73
2023-04-29T22:13:36.496Z,268.93
2023-04-29T22:18:38.907Z,267.03
2023-04-29T22:23:42.016Z,263.57
2023-04-29T22:28:44.379Z,264.03
2023-04-29T22:33:46.622Z,270.67
2023-04-29T22:38:49.104Z,293.07
2023-04-29T22:43:57.224Z,305.57
2023-04-29T22:48:59.709Z,308.33
2023-04-29T22:54:01.926Z,314.37
2023-04-29T22:59:04.140Z,274.53
2023-04-29T23:04:06.428Z,253.73
2023-04-29T23:09:08.799Z,251.70
2023-04-29T23:14:11.171Z,249.47
2023-04-29T23:19:13.407Z,249.27
2023-04-29T23:24:15.667Z,254.67
2023-04-29T23:29:18.079Z,272.33
2023-04-29T23:34:20.481Z,287.10
2023-04-29T23:39:22.789Z,291.40
2023-04-29T23:44:25.475Z,297.53
2023-04-29T23:49:28.728Z,294.73
2023-04-29T23:54:30.984Z,296.93
2023-04-29T23:59:33.175Z,296.33
